Twig, Minnesota
Current Conditions -  °F | °C
As of 1:55 AM on Friday 24 Oct 2014 (Local Time) from KDLH Reporting Station
Haze Haze  
Wind Chill: 45°   Ceiling: 200
Heat Index: 49°   Visibility: 0.75mi
Dew Point: 46°   Wind: 9mph
Humidity: 90%   Direction: 200°SSW
Pressure: 29.91"   Gusts: NA
Location:  46.89°N, 92.36°W
Report Text: KDLH 240655Z 20008KT 3/4SM R09/3000V5000FT BR OVC002 09/08 A2991 RMK AO2 SLP137 T00940078
Loading
Personal Weather Stations






























Interactive Weather Map
Tropical Storm Tracking
New forecast layout! Learn more

10-Day Weather Forecast

Advertisements
Track Severe Weather on mobile